Time;durP1;ratioP1;P1;durP2;ratioP2;P2;SDS_P1;SDS_P2;PMS_P1;PMS_P2;Temp;Humidity;BMP_temperature;BMP_pressure;BME280_temperature;BME280_humidity;BME280_pressure;Samples;Min_cycle;Max_cycle;Signal;HPM_P1;HPM_P2
2023/02/19 00:01:19;;;;;;;18.60;7.82;;;;;;;7.33;49.94;94188.00;5103508;28;20051;-81
2023/02/19 00:03:51;;;;;;;18.60;8.35;;;;;;;7.31;49.94;94198.88;5103375;28;20068;-80
2023/02/19 00:06:17;;;;;;;18.15;7.28;;;;;;;7.28;50.34;94180.88;5103307;28;20223;-80
2023/02/19 00:08:43;;;;;;;15.38;6.65;;;;;;;7.29;50.30;94195.72;5103386;28;20023;-80
2023/02/19 00:11:14;;;;;;;12.32;6.55;;;;;;;7.31;50.32;94195.47;5103244;28;20069;-80
2023/02/19 00:13:41;;;;;;;19.58;7.57;;;;;;;7.25;49.87;94192.06;5103559;28;20051;-80
2023/02/19 00:16:13;;;;;;;16.30;7.43;;;;;;;7.20;50.14;94195.56;5103218;28;20019;-80
2023/02/19 00:18:39;;;;;;;23.63;7.88;;;;;;;7.16;50.29;94177.84;5103279;28;20044;-80
2023/02/19 00:21:05;;;;;;;19.48;7.63;;;;;;;7.11;50.72;94176.06;5101968;28;20024;-80
2023/02/19 00:23:31;;;;;;;15.57;6.97;;;;;;;7.06;50.65;94177.97;5102951;28;20027;-80
2023/02/19 00:26:00;;;;;;;18.17;7.45;;;;;;;7.08;50.53;94167.88;5102169;28;20024;-80
2023/02/19 00:28:25;;;;;;;20.92;7.18;;;;;;;7.10;50.79;94176.34;5103149;28;20218;-80
2023/02/19 00:30:51;;;;;;;19.60;7.25;;;;;;;7.12;51.09;94168.88;5102963;28;20061;-80
2023/02/19 00:33:17;;;;;;;18.38;7.07;;;;;;;7.05;51.14;94153.34;5103189;28;20035;-80
2023/02/19 00:35:42;;;;;;;16.42;7.38;;;;;;;7.03;51.41;94171.38;5103188;28;20046;-80
2023/02/19 00:38:08;;;;;;;15.88;6.55;;;;;;;7.02;51.32;94165.28;5101682;28;20048;-80
2023/02/19 00:40:33;;;;;;;17.48;8.15;;;;;;;7.03;51.34;94156.25;5102834;28;20020;-80
2023/02/19 00:42:59;;;;;;;18.38;7.13;;;;;;;7.02;51.55;94170.59;5103066;28;20051;-80
2023/02/19 00:45:24;;;;;;;18.38;7.25;;;;;;;6.98;51.33;94177.53;5103288;28;20069;-80
2023/02/19 00:47:50;;;;;;;14.73;6.63;;;;;;;6.97;51.20;94156.59;5102827;28;20093;-80
2023/02/19 00:50:15;;;;;;;18.95;7.15;;;;;;;6.95;51.34;94162.19;5102942;28;20027;-80
2023/02/19 00:52:41;;;;;;;22.02;6.57;;;;;;;6.91;51.86;94158.53;5102762;28;20024;-80
2023/02/19 00:55:06;;;;;;;14.85;6.63;;;;;;;6.85;52.19;94162.28;5101751;28;20188;-80
2023/02/19 00:57:32;;;;;;;14.77;6.72;;;;;;;6.77;52.14;94154.97;5102873;28;20091;-80
2023/02/19 00:59:57;;;;;;;17.60;7.03;;;;;;;6.73;52.54;94141.47;5102934;28;20257;-80
2023/02/19 01:02:23;;;;;;;20.88;8.05;;;;;;;6.71;52.61;94134.91;5102982;28;20383;-80
2023/02/19 01:04:48;;;;;;;20.13;7.47;;;;;;;6.74;52.74;94131.69;5102738;28;20020;-81
2023/02/19 01:07:14;;;;;;;26.65;8.50;;;;;;;6.72;52.41;94133.84;5102602;28;20012;-80
2023/02/19 01:09:39;;;;;;;29.55;8.05;;;;;;;6.77;52.40;94134.56;5102743;28;20066;-80
2023/02/19 01:12:05;;;;;;;21.85;7.55;;;;;;;6.74;52.17;94119.25;5102827;28;20016;-80
2023/02/19 01:14:31;;;;;;;17.75;6.68;;;;;;;6.65;52.23;94104.25;5102749;28;20016;-80
2023/02/19 01:16:56;;;;;;;17.65;7.85;;;;;;;6.65;52.47;94133.38;5101417;28;20032;-80
2023/02/19 01:19:21;;;;;;;21.98;7.00;;;;;;;6.65;52.63;94115.63;5102739;28;20035;-80
2023/02/19 01:21:47;;;;;;;20.40;6.03;;;;;;;6.68;52.50;94115.06;5102644;28;20126;-81
2023/02/19 01:24:13;;;;;;;16.45;7.28;;;;;;;6.70;52.04;94135.97;5102602;28;20222;-82
2023/02/19 01:26:39;;;;;;;13.07;7.20;;;;;;;6.46;52.95;94136.75;5102607;28;20020;-82
2023/02/19 01:29:05;;;;;;;16.50;6.38;;;;;;;6.45;53.33;94145.75;5102553;28;20080;-83
2023/02/19 01:31:31;;;;;;;18.75;7.78;;;;;;;6.49;52.92;94151.28;5102421;28;20310;-83
2023/02/19 01:33:58;;;;;;;19.98;7.38;;;;;;;6.51;52.72;94172.97;5102764;28;20031;-83
2023/02/19 01:36:24;;;;;;;17.13;7.03;;;;;;;6.45;52.73;94166.13;5106326;28;20024;-83
2023/02/19 01:38:50;;;;;;;16.90;7.20;;;;;;;6.42;53.12;94162.19;5106141;28;20039;-83
2023/02/19 01:41:19;;;;;;;18.75;6.63;;;;;;;6.41;52.95;94171.19;5106142;28;20090;-83
2023/02/19 01:44:06;;;;;;;16.33;6.47;;;;;;;6.45;53.07;94185.47;5106119;28;20054;-83
2023/02/19 01:46:41;;;;;;;19.90;6.97;;;;;;;6.49;52.95;94173.25;5105989;28;20246;-82
2023/02/19 01:49:12;;;;;;;18.08;6.82;;;;;;;6.50;53.15;94176.69;5105822;28;20016;-82
2023/02/19 01:51:43;;;;;;;14.48;5.93;;;;;;;6.37;53.42;94191.34;5105937;28;20020;-82
2023/02/19 01:54:12;;;;;;;22.40;6.45;;;;;;;6.28;53.58;94208.91;5105912;28;20115;-82
2023/02/19 01:56:41;;;;;;;18.30;6.88;;;;;;;6.30;53.18;94199.63;5105815;28;20024;-82
2023/02/19 01:59:07;;;;;;;17.55;6.85;;;;;;;6.27;53.21;94186.16;5105572;28;20073;-82
2023/02/19 02:01:33;;;;;;;20.92;7.05;;;;;;;6.33;53.47;94211.50;5104509;28;20087;-82
2023/02/19 02:03:59;;;;;;;21.77;6.22;;;;;;;6.31;53.14;94197.75;5105762;28;20030;-81
2023/02/19 02:06:30;;;;;;;28.70;6.25;;;;;;;6.23;53.14;94176.13;5105540;28;20024;-81
2023/02/19 02:11:46;;;;;;;15.30;6.50;;;;;;;6.27;53.25;94155.19;5105630;28;20139;-81
2023/02/19 02:14:12;;;;;;;12.00;5.72;;;;;;;6.34;53.08;94154.88;5105220;28;20066;-81
2023/02/19 02:17:07;;;;;;;22.52;6.50;;;;;;;6.39;52.94;94174.16;5105061;28;20095;-81
2023/02/19 02:19:50;;;;;;;20.05;7.25;;;;;;;6.32;52.67;94165.72;5105393;28;20031;-81
2023/02/19 02:22:54;;;;;;;23.13;6.18;;;;;;;6.30;53.14;94175.00;5105286;28;20095;-80
2023/02/19 02:25:51;;;;;;;12.93;6.30;;;;;;;6.31;53.15;94163.34;5105173;28;20099;-81
2023/02/19 02:28:41;;;;;;;18.23;6.00;;;;;;;6.31;53.05;94180.03;5105326;28;20026;-80
2023/02/19 02:31:12;;;;;;;15.75;5.78;;;;;;;6.32;53.01;94184.25;5103893;28;20277;-81
2023/02/19 02:33:53;;;;;;;13.15;7.05;;;;;;;6.29;52.90;94184.00;5104065;28;20020;-80
2023/02/19 02:36:40;;;;;;;13.85;6.63;;;;;;;6.26;53.18;94182.72;5105167;28;20092;-81
2023/02/19 02:39:09;;;;;;;14.02;6.15;;;;;;;6.25;53.17;94177.69;5104925;28;20032;-81
2023/02/19 02:41:43;;;;;;;12.98;6.13;;;;;;;6.23;53.49;94201.81;5105028;28;20195;-81
2023/02/19 02:44:09;;;;;;;15.93;7.05;;;;;;;6.22;53.40;94198.34;5104953;28;20031;-81
2023/02/19 02:46:42;;;;;;;19.08;7.78;;;;;;;6.16;53.14;94196.81;5103769;28;20436;-81
2023/02/19 02:49:15;;;;;;;15.98;6.15;;;;;;;6.06;53.68;94199.53;5104868;28;20091;-80
2023/02/19 02:51:46;;;;;;;18.58;7.03;;;;;;;6.00;53.94;94195.34;5104654;28;20016;-80
2023/02/19 02:57:13;;;;;;;18.77;6.65;;;;;;;5.87;54.32;94180.88;5104587;28;20050;-80
2023/02/19 02:59:41;;;;;;;19.50;7.22;;;;;;;5.85;54.40;94183.00;5104618;28;20016;-81
2023/02/19 03:02:19;;;;;;;20.00;7.07;;;;;;;5.75;54.73;94181.19;5104497;28;20909;-80
2023/02/19 03:07:44;;;;;;;17.15;6.32;;;;;;;5.66;55.05;94187.34;5104514;28;20065;-80
2023/02/19 03:10:16;;;;;;;14.52;6.60;;;;;;;5.63;55.42;94176.25;5104412;28;20028;-79
2023/02/19 03:21:08;;;;;;;17.08;6.90;;;;;;;5.55;55.78;94203.25;5104176;28;20039;-82
2023/02/19 03:26:20;;;;;;;14.63;6.30;;;;;;;5.55;55.74;94190.03;5104192;28;20027;-81
2023/02/19 03:31:33;;;;;;;12.13;6.15;;;;;;;5.54;56.01;94214.13;5104321;28;20031;-81
2023/02/19 03:34:02;;;;;;;18.23;7.32;;;;;;;5.54;56.04;94224.72;5103830;28;20222;-82
2023/02/19 03:36:36;;;;;;;13.98;5.78;;;;;;;5.46;56.11;94230.56;5104025;28;20044;-82
2023/02/19 03:39:07;;;;;;;17.33;6.32;;;;;;;5.46;56.13;94234.00;5102645;28;20031;-82
2023/02/19 03:41:46;;;;;;;12.93;5.68;;;;;;;5.52;56.07;94229.47;5103714;28;20024;-81
2023/02/19 03:44:31;;;;;;;14.60;6.68;;;;;;;5.59;55.82;94238.66;5103967;28;20043;-82
2023/02/19 03:47:09;;;;;;;22.30;6.50;;;;;;;5.63;55.83;94225.69;5103687;28;20055;-82
2023/02/19 03:49:44;;;;;;;14.57;6.15;;;;;;;5.70;55.67;94231.50;5103769;28;20020;-80
2023/02/19 03:52:17;;;;;;;19.35;6.75;;;;;;;5.74;55.63;94229.88;5102443;28;20322;-81
2023/02/19 03:55:07;;;;;;;20.08;5.88;;;;;;;5.80;55.47;94234.09;5103645;28;20038;-81
2023/02/19 03:57:44;;;;;;;17.67;6.47;;;;;;;5.78;55.56;94233.56;5102147;28;20026;-81
2023/02/19 04:00:24;;;;;;;17.30;6.13;;;;;;;5.74;55.66;94237.81;5103533;28;20028;-81
2023/02/19 04:03:01;;;;;;;17.27;5.18;;;;;;;5.68;55.75;94248.69;5103582;28;20027;-81
2023/02/19 04:05:30;;;;;;;17.70;6.15;;;;;;;5.62;55.85;94247.94;5103603;28;20020;-81
2023/02/19 04:08:07;;;;;;;15.93;6.72;;;;;;;5.61;55.91;94248.97;5103579;28;20308;-81
2023/02/19 04:10:34;;;;;;;13.45;6.35;;;;;;;5.62;55.88;94256.66;5103405;28;20051;-81
2023/02/19 04:13:08;;;;;;;14.23;6.18;;;;;;;5.66;55.94;94259.56;5103288;28;20245;-81
2023/02/19 04:15:35;;;;;;;13.93;6.28;;;;;;;5.61;55.83;94259.56;5103358;28;20310;-81
2023/02/19 04:18:07;;;;;;;20.95;7.43;;;;;;;5.59;56.09;94259.81;5102948;28;20377;-81
2023/02/19 04:20:39;;;;;;;16.08;6.47;;;;;;;5.54;56.17;94261.72;5103266;28;20015;-81
2023/02/19 04:23:04;;;;;;;23.20;7.28;;;;;;;5.53;56.33;94254.84;5103195;28;20293;-81
2023/02/19 04:25:31;;;;;;;19.17;6.65;;;;;;;5.52;56.45;94261.19;5103066;28;20031;-81
2023/02/19 04:27:57;;;;;;;18.50;6.63;;;;;;;5.54;56.29;94257.22;5102977;28;20337;-81
2023/02/19 04:30:23;;;;;;;15.50;6.50;;;;;;;5.50;56.53;94256.19;5103428;28;20035;-81
2023/02/19 04:32:49;;;;;;;21.85;7.03;;;;;;;5.59;56.22;94266.97;5102971;28;20060;-81
2023/02/19 04:35:14;;;;;;;12.23;6.53;;;;;;;5.63;56.31;94252.16;5102010;28;20019;-80
2023/02/19 04:37:40;;;;;;;14.93;6.68;;;;;;;5.67;56.12;94266.41;5102998;28;20087;-81
2023/02/19 04:40:05;;;;;;;19.17;7.30;;;;;;;5.73;55.92;94264.53;5102937;28;20023;-81
2023/02/19 04:42:31;;;;;;;22.88;7.03;;;;;;;5.73;55.85;94267.19;5103117;28;20038;-82
2023/02/19 04:44:56;;;;;;;20.42;8.00;;;;;;;5.77;55.75;94252.34;5103064;28;20357;-82
2023/02/19 04:47:22;;;;;;;18.55;7.45;;;;;;;5.77;55.74;94268.22;5102867;28;20074;-81
2023/02/19 04:49:47;;;;;;;25.98;8.43;;;;;;;5.77;55.79;94263.72;5102970;28;20024;-81
2023/02/19 04:52:13;;;;;;;17.75;7.72;;;;;;;5.79;55.66;94271.38;5102843;28;20031;-81
2023/02/19 04:54:38;;;;;;;15.60;7.53;;;;;;;5.84;55.43;94263.41;5102787;28;20074;-82
2023/02/19 04:57:04;;;;;;;17.08;7.30;;;;;;;5.86;55.25;94266.56;5102819;28;20032;-81
2023/02/19 04:59:29;;;;;;;16.10;7.32;;;;;;;5.86;55.27;94265.78;5102801;28;20024;-83
2023/02/19 05:01:56;;;;;;;17.95;7.93;;;;;;;5.87;55.14;94277.97;5102986;28;20042;-83
2023/02/19 05:04:22;;;;;;;18.80;7.00;;;;;;;5.85;55.33;94275.59;5102927;28;20043;-81
2023/02/19 05:06:48;;;;;;;17.13;7.47;;;;;;;5.86;55.36;94265.78;5102843;28;20024;-81
2023/02/19 05:09:13;;;;;;;15.10;6.57;;;;;;;5.93;54.73;94271.59;5103215;28;20241;-80
2023/02/19 05:11:39;;;;;;;11.93;5.75;;;;;;;6.09;54.71;94278.41;5106718;28;20188;-81
2023/02/19 05:14:04;;;;;;;8.77;4.15;;;;;;;6.80;54.68;94250.56;5106678;28;20049;-83
2023/02/19 05:16:30;;;;;;;15.02;4.65;;;;;;;7.60;52.54;94278.38;5106534;28;20027;-83
2023/02/19 05:18:55;;;;;;;8.73;3.60;;;;;;;8.15;50.61;94267.31;5106543;28;20047;-83
2023/02/19 05:21:21;;;;;;;7.50;3.25;;;;;;;8.70;48.49;94276.63;5106545;28;20027;-84
2023/02/19 05:23:46;;;;;;;11.65;4.85;;;;;;;9.02;48.10;94273.94;5106563;28;20334;-82
2023/02/19 05:26:18;;;;;;;9.15;3.47;;;;;;;9.29;47.43;94266.31;5106421;28;20046;-81
2023/02/19 05:28:45;;;;;;;7.43;3.80;;;;;;;9.42;47.17;94282.28;5106408;28;20043;-82
2023/02/19 05:31:10;;;;;;;6.60;3.60;;;;;;;9.67;45.99;94288.19;5106316;28;20033;-81
2023/02/19 05:33:36;;;;;;;8.27;3.90;;;;;;;9.77;45.60;94269.38;5106332;28;20062;-83
2023/02/19 05:36:07;;;;;;;9.45;4.00;;;;;;;9.88;45.40;94280.59;5106344;28;20048;-83
2023/02/19 05:38:33;;;;;;;12.55;5.53;;;;;;;9.89;45.56;94284.03;5106095;28;20019;-82
2023/02/19 05:41:09;;;;;;;9.65;4.18;;;;;;;9.97;45.06;94296.66;5106194;28;20019;-82
2023/02/19 05:43:35;;;;;;;8.73;4.18;;;;;;;10.02;44.79;94302.66;5106114;28;20019;-81
2023/02/19 05:46:00;;;;;;;7.35;3.75;;;;;;;10.08;44.48;94295.34;5105786;28;20044;-82
2023/02/19 05:48:26;;;;;;;8.27;4.15;;;;;;;10.12;44.75;94295.56;5106227;28;20015;-80
2023/02/19 05:50:51;;;;;;;7.38;3.97;;;;;;;10.12;45.01;94287.56;5105849;28;20329;-81
2023/02/19 05:53:17;;;;;;;8.05;4.28;;;;;;;10.14;44.38;94280.84;5106172;28;20330;-80
2023/02/19 05:55:42;;;;;;;8.27;4.10;;;;;;;10.16;44.54;94292.00;5105762;28;20192;-80
2023/02/19 05:58:08;;;;;;;10.48;3.80;;;;;;;10.21;44.46;94291.09;5105887;28;20340;-81
2023/02/19 06:00:33;;;;;;;8.63;4.50;;;;;;;10.20;44.58;94298.28;5105817;28;20050;-78
2023/02/19 06:02:59;;;;;;;8.23;5.13;;;;;;;10.20;44.60;94313.50;5105395;28;20016;-78
2023/02/19 06:05:25;;;;;;;14.38;4.78;;;;;;;10.20;44.89;94310.84;5105893;28;20026;-80
2023/02/19 06:07:50;;;;;;;13.02;4.93;;;;;;;10.24;44.86;94323.25;5105593;28;20047;-80
2023/02/19 06:10:16;;;;;;;13.02;5.18;;;;;;;10.25;45.07;94324.81;5105557;28;20026;-80
2023/02/19 06:12:41;;;;;;;13.10;4.93;;;;;;;10.24;45.09;94328.56;5105543;28;20081;-80
2023/02/19 06:15:07;;;;;;;9.20;4.47;;;;;;;10.30;44.99;94329.28;5105538;28;20306;-82
2023/02/19 06:17:33;;;;;;;9.93;5.22;;;;;;;10.30;44.84;94328.47;5105396;28;20051;-82
2023/02/19 06:19:59;;;;;;;8.73;4.45;;;;;;;10.25;44.61;94332.03;5105173;28;20020;-82
2023/02/19 06:22:25;;;;;;;11.15;4.70;;;;;;;10.26;44.62;94338.94;5105465;28;20161;-82
2023/02/19 06:24:51;;;;;;;14.10;4.53;;;;;;;10.29;44.09;94337.53;5105280;28;20032;-82
2023/02/19 06:27:16;;;;;;;10.80;4.90;;;;;;;10.27;43.94;94335.19;5103808;28;20273;-82
2023/02/19 06:29:42;;;;;;;8.23;4.65;;;;;;;10.25;44.40;94324.81;5104015;28;20023;-82
2023/02/19 06:32:07;;;;;;;12.10;4.53;;;;;;;10.24;44.26;94335.78;5105113;28;20043;-82
2023/02/19 06:34:33;;;;;;;6.70;4.72;;;;;;;10.27;44.00;94334.41;5105044;28;20032;-81
2023/02/19 06:36:59;;;;;;;8.85;3.55;;;;;;;10.25;43.75;94327.47;5104998;28;20028;-80
2023/02/19 06:39:26;;;;;;;8.77;3.70;;;;;;;10.25;43.74;94329.34;5105042;28;20027;-82
2023/02/19 06:41:54;;;;;;;9.98;3.80;;;;;;;10.32;43.83;94334.31;5105190;28;20207;-82
2023/02/19 06:44:20;;;;;;;14.23;4.95;;;;;;;10.31;43.62;94325.53;5105056;28;20206;-83
2023/02/19 06:46:45;;;;;;;14.48;5.40;;;;;;;10.28;43.76;94325.31;5104623;28;20123;-81
2023/02/19 06:49:11;;;;;;;10.27;4.72;;;;;;;10.29;43.99;94334.88;5104658;28;20065;-81
2023/02/19 06:51:36;;;;;;;12.27;4.82;;;;;;;10.30;43.96;94337.28;5104659;28;20348;-80
2023/02/19 06:54:02;;;;;;;8.05;4.75;;;;;;;10.27;44.41;94329.84;5104751;28;20039;-82
2023/02/19 06:56:38;;;;;;;11.40;4.07;;;;;;;10.30;43.85;94337.28;5104754;28;20244;-82
2023/02/19 06:59:06;;;;;;;11.10;4.70;;;;;;;10.32;43.89;94336.97;5104632;28;20028;-82
2023/02/19 07:01:33;;;;;;;13.32;5.20;;;;;;;10.41;43.31;94337.84;5104299;28;20195;-82
2023/02/19 07:03:58;;;;;;;10.98;4.57;;;;;;;10.41;43.09;94343.97;5104355;28;20016;-82
2023/02/19 07:06:25;;;;;;;9.00;3.80;;;;;;;10.42;43.06;94352.72;5104513;28;20031;-82
2023/02/19 07:08:51;;;;;;;10.40;3.78;;;;;;;10.46;42.56;94343.06;5104260;28;20214;-82
2023/02/19 07:11:17;;;;;;;11.32;4.25;;;;;;;10.45;42.83;94349.47;5104093;28;20036;-82
2023/02/19 07:13:43;;;;;;;12.50;5.22;;;;;;;10.44;43.17;94346.03;5104122;28;20023;-81
2023/02/19 07:16:10;;;;;;;18.15;5.63;;;;;;;10.47;44.03;94357.97;5104258;28;20046;-82
2023/02/19 07:18:36;;;;;;;21.33;6.50;;;;;;;10.45;44.15;94360.16;5104223;28;20024;-82
2023/02/19 07:21:11;;;;;;;17.30;7.78;;;;;;;10.38;44.04;94355.22;5104259;28;20059;-82
2023/02/19 07:23:37;;;;;;;12.20;5.72;;;;;;;10.39;44.14;94348.81;5104069;28;20191;-82
2023/02/19 07:26:03;;;;;;;13.52;5.90;;;;;;;10.40;44.12;94338.91;5103943;28;20024;-81
2023/02/19 07:28:29;;;;;;;13.98;5.88;;;;;;;10.42;43.85;94331.41;5104040;28;20066;-81
2023/02/19 07:31:00;;;;;;;17.55;6.78;;;;;;;10.44;44.22;94340.72;5104173;28;20028;-81
2023/02/19 07:33:26;;;;;;;14.63;6.00;;;;;;;10.42;43.55;94326.09;5103502;28;20016;-80
2023/02/19 07:35:51;;;;;;;12.45;5.70;;;;;;;10.45;43.91;94325.50;5103539;28;20080;-80
2023/02/19 07:38:22;;;;;;;16.17;6.20;;;;;;;10.42;43.95;94321.56;5103790;28;20235;-80
2023/02/19 07:40:56;;;;;;;14.57;5.47;;;;;;;10.48;43.80;94318.78;5103921;28;20052;-80
2023/02/19 07:43:23;;;;;;;12.40;5.18;;;;;;;10.57;43.33;94312.44;5102586;28;20036;-80
2023/02/19 07:45:49;;;;;;;16.38;5.57;;;;;;;10.58;43.68;94314.03;5103346;28;20031;-80
2023/02/19 07:48:14;;;;;;;16.67;5.15;;;;;;;10.63;43.35;94305.13;5102466;28;20020;-80
2023/02/19 07:50:40;;;;;;;12.90;4.80;;;;;;;10.47;43.53;94307.34;5103612;28;20027;-80
2023/02/19 07:53:06;;;;;;;14.52;5.68;;;;;;;10.54;44.03;94329.03;5103580;28;20020;-81
2023/02/19 07:55:32;;;;;;;22.30;5.68;;;;;;;10.59;44.15;94304.91;5103562;28;20411;-81
2023/02/19 07:57:58;;;;;;;20.02;6.68;;;;;;;10.71;45.59;94311.59;5103166;28;20289;-76
2023/02/19 08:00:24;;;;;;;7.93;3.72;;;;;;;10.97;43.61;94299.25;5103542;28;20035;-74
2023/02/19 08:02:59;;;;;;;11.25;4.10;;;;;;;11.25;43.21;94312.41;5103184;28;20215;-74
2023/02/19 08:05:29;;;;;;;8.00;3.22;;;;;;;11.47;41.91;94311.59;5103263;28;20031;-74
2023/02/19 08:07:55;;;;;;;11.70;5.78;;;;;;;11.61;41.73;94316.84;5103448;28;20019;-81
2023/02/19 08:13:21;;;;;;;5.90;3.38;;;;;;;11.79;41.45;94318.47;5103246;28;20065;-81
2023/02/19 08:16:01;;;;;;;;;;;;;;;11.91;41.53;94309.91;5103540;28;20470;-81
2023/02/19 08:18:29;;;;;;;8.13;3.50;;;;;;;11.94;41.58;94303.94;5103221;28;19982;-81
2023/02/19 08:20:56;;;;;;;6.65;3.00;;;;;;;12.10;41.20;94312.31;5102975;28;20103;-81
2023/02/19 08:23:22;;;;;;;9.25;3.90;;;;;;;12.17;40.60;94319.84;5102977;28;20243;-81
2023/02/19 08:25:49;;;;;;;7.57;3.05;;;;;;;12.22;41.00;94306.38;5103120;28;20027;-81
2023/02/19 08:28:15;;;;;;;9.75;2.97;;;;;;;12.31;41.42;94298.34;5103008;28;20023;-81
2023/02/19 08:30:45;;;;;;;7.70;3.47;;;;;;;12.36;40.82;94314.25;5102946;28;20046;-81
2023/02/19 08:33:13;;;;;;;7.05;3.45;;;;;;;12.45;40.96;94304.34;5102861;28;20020;-81
2023/02/19 08:35:40;;;;;;;9.20;3.40;;;;;;;12.50;40.44;94301.53;5102723;28;20023;-81
2023/02/19 08:38:05;;;;;;;6.13;3.03;;;;;;;12.45;40.20;94302.44;5102488;28;20373;-81
2023/02/19 08:40:32;;;;;;;7.93;3.40;;;;;;;12.53;40.45;94297.44;5103176;28;20020;-81
2023/02/19 08:43:05;;;;;;;9.10;3.10;;;;;;;12.66;40.69;94301.84;5103631;28;20020;-81
2023/02/19 08:45:31;;;;;;;8.80;4.68;;;;;;;12.74;39.68;94282.34;5106407;28;20049;-81
2023/02/19 08:47:57;;;;;;;7.70;3.08;;;;;;;12.69;39.52;94282.47;5107444;28;20277;-75
2023/02/19 08:50:23;;;;;;;9.10;3.38;;;;;;;12.75;39.19;94291.91;5107175;28;20016;-79
2023/02/19 08:52:48;;;;;;;7.47;2.97;;;;;;;12.81;39.24;94297.91;5107082;28;20016;-78
2023/02/19 08:55:13;;;;;;;6.53;3.38;;;;;;;12.76;38.56;94282.81;5106915;28;20016;-79
2023/02/19 08:57:39;;;;;;;9.05;3.05;;;;;;;12.71;39.12;94279.50;5106756;28;20032;-80
2023/02/19 09:00:05;;;;;;;7.63;3.67;;;;;;;12.63;39.65;94276.50;5106820;28;20031;-79
2023/02/19 09:02:31;;;;;;;8.43;3.20;;;;;;;12.70;39.80;94268.03;5106877;28;20024;-84
2023/02/19 09:04:57;;;;;;;7.97;3.58;;;;;;;12.76;40.75;94279.31;5106899;28;20087;-83
2023/02/19 09:07:22;;;;;;;6.97;3.10;;;;;;;12.74;41.04;94266.28;5105620;28;20023;-85
2023/02/19 09:09:48;;;;;;;8.18;3.13;;;;;;;12.81;40.82;94287.19;5106648;28;20103;-84
2023/02/19 09:12:13;;;;;;;6.72;3.10;;;;;;;12.79;40.84;94257.31;5106750;28;20020;-84
2023/02/19 09:14:39;;;;;;;7.90;3.30;;;;;;;12.87;41.27;94269.88;5106397;28;20023;-85
2023/02/19 09:17:06;;;;;;;7.85;3.35;;;;;;;12.78;40.83;94267.22;5106398;28;20022;-85
2023/02/19 09:19:31;;;;;;;6.15;3.28;;;;;;;12.86;40.43;94252.25;5106540;28;20026;-86
2023/02/19 09:21:57;;;;;;;9.25;3.63;;;;;;;12.80;40.39;94258.88;5106596;28;20102;-85
2023/02/19 09:24:23;;;;;;;10.02;4.07;;;;;;;12.85;40.02;94240.00;5106826;28;20032;-87
2023/02/19 09:26:50;;;;;;;8.60;3.65;;;;;;;12.90;40.49;94247.06;5106514;28;20031;-87
2023/02/19 09:29:16;;;;;;;7.28;3.80;;;;;;;12.97;40.09;94255.41;5106314;28;20024;-85
2023/02/19 09:31:42;;;;;;;10.13;3.72;;;;;;;12.95;40.58;94257.59;5106304;28;20083;-87
2023/02/19 09:34:07;;;;;;;9.38;3.78;;;;;;;12.97;39.64;94247.38;5106380;28;20046;-87
2023/02/19 09:36:33;;;;;;;6.53;3.15;;;;;;;12.99;39.87;94256.66;5106163;28;20020;-87
2023/02/19 09:38:59;;;;;;;6.82;3.78;;;;;;;13.09;39.00;94244.00;5104838;28;20036;-87
2023/02/19 09:41:27;;;;;;;6.78;3.47;;;;;;;13.13;38.33;94255.69;5106174;28;20035;-87
2023/02/19 09:43:54;;;;;;;5.40;3.38;;;;;;;13.23;38.32;94258.00;5106155;28;20102;-88
2023/02/19 09:46:25;;;;;;;7.53;3.88;;;;;;;13.19;38.16;94249.06;5105742;28;20043;-86
2023/02/19 09:48:54;;;;;;;20.10;3.23;;;;;;;13.27;38.80;94244.75;5106312;28;20116;-86
2023/02/19 09:51:20;;;;;;;9.05;4.13;;;;;;;13.29;37.99;94259.44;5104661;28;20278;-83
2023/02/19 09:53:50;;;;;;;10.27;3.38;;;;;;;13.35;38.02;94247.44;5105870;28;20039;-84
2023/02/19 09:56:16;;;;;;;5.05;3.13;;;;;;;13.43;38.21;94243.97;5105374;28;20066;-88
2023/02/19 09:58:41;;;;;;;6.53;2.60;;;;;;;13.51;38.05;94230.84;5105784;28;20268;-86
2023/02/19 10:01:10;;;;;;;9.23;5.03;;;;;;;13.62;38.08;94213.31;5105607;28;20130;-84
2023/02/19 10:03:42;;;;;;;6.68;3.40;;;;;;;13.79;37.51;94207.84;5105517;28;20020;-76
2023/02/19 10:06:17;;;;;;;7.43;3.33;;;;;;;13.83;37.13;94210.66;5105593;28;20229;-75
2023/02/19 10:08:44;;;;;;;7.93;3.67;;;;;;;13.78;36.86;94205.47;5105373;28;20027;-81
2023/02/19 10:11:11;;;;;;;8.02;3.40;;;;;;;13.83;37.39;94205.31;5104228;28;20073;-80
2023/02/19 10:13:44;;;;;;;9.40;3.72;;;;;;;13.87;37.13;94197.41;5105421;28;20028;-84
2023/02/19 10:16:19;;;;;;;6.82;3.38;;;;;;;13.97;36.98;94200.50;5105358;28;20090;-75
2023/02/19 10:18:45;;;;;;;7.55;3.35;;;;;;;14.01;36.33;94185.31;5105252;28;20441;-78
2023/02/19 10:21:23;;;;;;;11.18;4.63;;;;;;;14.07;36.63;94174.44;5103996;28;20031;-81
2023/02/19 10:23:54;;;;;;;9.68;3.53;;;;;;;14.20;36.64;94181.41;5105287;28;20282;-81
2023/02/19 10:26:20;;;;;;;5.30;2.83;;;;;;;14.24;36.20;94168.91;5105173;28;20040;-80
2023/02/19 10:28:46;;;;;;;6.28;3.88;;;;;;;14.34;36.18;94165.06;5105162;28;20024;-80
2023/02/19 10:31:20;;;;;;;11.48;3.85;;;;;;;14.45;35.95;94158.97;5105036;28;20023;-81
2023/02/19 10:33:55;;;;;;;9.40;4.97;;;;;;;14.57;35.90;94163.63;5105125;28;20027;-80
2023/02/19 10:36:32;;;;;;;8.35;3.20;;;;;;;14.66;35.83;94150.13;5105021;28;20069;-81
2023/02/19 10:38:59;;;;;;;5.47;2.80;;;;;;;14.78;35.40;94139.41;5104934;28;20032;-83
2023/02/19 10:41:26;;;;;;;5.88;2.67;;;;;;;14.84;35.25;94139.97;5106472;28;20231;-87
2023/02/19 10:43:57;;;;;;;5.60;2.83;;;;;;;14.87;35.80;94131.25;5104662;28;20036;-88
2023/02/19 10:46:32;;;;;;;9.77;2.58;;;;;;;14.89;35.03;94134.38;5103626;28;20093;-81
2023/02/19 10:49:02;;;;;;;5.50;2.22;;;;;;;14.91;35.16;94126.00;5105068;28;20206;-84
2023/02/19 10:51:35;;;;;;;7.70;2.53;;;;;;;14.88;35.01;94121.28;5104797;28;20107;-80
2023/02/19 10:54:25;;;;;;;13.85;2.35;;;;;;;14.78;34.60;94111.81;5104905;28;20038;-84
2023/02/19 10:56:51;;;;;;;5.88;2.55;;;;;;;14.84;34.80;94108.56;5094135;28;20035;-85
2023/02/19 10:59:16;;;;;;;5.65;2.70;;;;;;;14.82;34.87;94104.66;5104732;28;20016;-83
2023/02/19 11:01:58;;;;;;;7.30;3.00;;;;;;;14.86;34.63;94108.22;5103537;28;20035;-85
2023/02/19 11:04:36;;;;;;;7.57;3.10;;;;;;;14.86;34.61;94092.13;5104737;28;20256;-85
2023/02/19 11:07:15;;;;;;;6.88;2.63;;;;;;;14.92;34.75;94082.75;5103643;28;20024;-84
2023/02/19 11:09:44;;;;;;;6.97;2.50;;;;;;;14.97;35.11;94074.47;5103028;28;20191;-83
2023/02/19 11:12:13;;;;;;;7.63;2.83;;;;;;;15.03;34.78;94081.16;5104500;28;20028;-82
2023/02/19 11:14:42;;;;;;;15.15;2.83;;;;;;;15.14;34.11;94086.91;5104525;28;20257;-82
2023/02/19 11:17:24;;;;;;;5.78;2.55;;;;;;;15.19;33.85;94072.47;5104241;28;20028;-82
2023/02/19 11:19:57;;;;;;;10.35;2.88;;;;;;;15.28;33.87;94059.69;5102837;28;20016;-84
2023/02/19 11:22:41;;;;;;;7.47;2.60;;;;;;;15.41;33.56;94063.94;5104266;28;20026;-88
2023/02/19 11:25:28;;;;;;;10.85;2.05;;;;;;;15.46;33.43;94052.16;5104143;28;20058;-87
2023/02/19 11:28:05;;;;;;;9.55;2.17;;;;;;;15.56;33.73;94037.47;5104239;28;20016;-83
2023/02/19 11:30:44;;;;;;;4.32;2.20;;;;;;;15.67;32.87;94049.31;5105002;28;20019;-88
2023/02/19 11:33:15;;;;;;;4.72;2.00;;;;;;;15.76;32.50;94041.16;5102974;28;20031;-84
2023/02/19 11:35:42;;;;;;;6.35;2.60;;;;;;;15.81;32.29;94033.66;5104018;28;20020;-84
2023/02/19 11:38:10;;;;;;;6.15;2.20;;;;;;;15.94;32.54;94030.91;5102689;28;20035;-84
2023/02/19 11:40:44;;;;;;;6.63;2.35;;;;;;;15.99;32.43;94036.03;5103788;28;20087;-84
2023/02/19 11:43:40;;;;;;;10.55;2.80;;;;;;;16.17;32.67;94023.06;5103901;28;20035;-83
2023/02/19 11:46:25;;;;;;;5.82;2.92;;;;;;;16.25;33.15;94020.22;5102471;28;20280;-85
2023/02/19 11:49:18;;;;;;;12.70;4.38;;;;;;;16.45;36.24;94014.94;5103732;28;20031;-84
2023/02/19 11:51:56;;;;;;;17.92;5.10;;;;;;;16.71;36.11;94016.34;5102536;28;20020;-85
2023/02/19 11:54:21;;;;;;;17.92;4.95;;;;;;;16.93;35.04;94013.06;5103929;28;20046;-86
2023/02/19 11:56:57;;;;;;;14.73;5.25;;;;;;;17.09;35.33;94009.56;5102420;28;20027;-89
2023/02/19 11:59:39;;;;;;;16.92;5.90;;;;;;;17.34;35.46;94002.84;5102273;28;20020;-85
2023/02/19 12:02:23;;;;;;;11.65;5.20;;;;;;;17.61;34.70;93997.63;5103406;28;20024;-88
2023/02/19 12:05:15;;;;;;;16.25;4.53;;;;;;;17.77;32.30;93998.31;5103614;28;20038;-80
2023/02/19 12:08:00;;;;;;;;;;;;;;;17.93;31.50;93989.41;5102507;28;20253;-78